sensor_id;sensor_type;location;lat;lon;timestamp;temperature;humidity
71155;DHT22;59375;53.216;5.728;2022-12-18T00:01:44;-2.30;99.90
71155;DHT22;59375;53.216;5.728;2022-12-18T00:04:23;-2.30;99.90
71155;DHT22;59375;53.216;5.728;2022-12-18T00:06:48;-2.40;99.90
71155;DHT22;59375;53.216;5.728;2022-12-18T00:09:14;-2.40;99.90
71155;DHT22;59375;53.216;5.728;2022-12-18T00:11:40;-2.40;99.90
71155;DHT22;59375;53.216;5.728;2022-12-18T00:14:05;-2.40;99.90
71155;DHT22;59375;53.216;5.728;2022-12-18T00:16:31;-2.40;99.90
71155;DHT22;59375;53.216;5.728;2022-12-18T00:18:58;-2.40;99.90
71155;DHT22;59375;53.216;5.728;2022-12-18T00:21:24;-2.40;99.90
71155;DHT22;59375;53.216;5.728;2022-12-18T00:23:49;-2.40;99.90
71155;DHT22;59375;53.216;5.728;2022-12-18T00:26:16;-2.40;99.90
71155;DHT22;59375;53.216;5.728;2022-12-18T00:28:42;-2.50;99.90
71155;DHT22;59375;53.216;5.728;2022-12-18T00:31:09;-2.50;99.90
71155;DHT22;59375;53.216;5.728;2022-12-18T00:33:35;-2.50;99.90
71155;DHT22;59375;53.216;5.728;2022-12-18T00:36:02;-2.50;99.90
71155;DHT22;59375;53.216;5.728;2022-12-18T00:38:27;-2.40;99.90
71155;DHT22;59375;53.216;5.728;2022-12-18T00:40:53;-2.40;99.90
71155;DHT22;59375;53.216;5.728;2022-12-18T00:43:18;-2.40;99.90
71155;DHT22;59375;53.216;5.728;2022-12-18T00:45:43;-2.50;99.90
71155;DHT22;59375;53.216;5.728;2022-12-18T00:48:09;-2.50;99.90
71155;DHT22;59375;53.216;5.728;2022-12-18T00:50:34;-2.50;99.90
71155;DHT22;59375;53.216;5.728;2022-12-18T00:53:00;-2.40;99.90
71155;DHT22;59375;53.216;5.728;2022-12-18T00:55:25;-2.40;99.90
71155;DHT22;59375;53.216;5.728;2022-12-18T00:57:51;-2.50;99.90
71155;DHT22;59375;53.216;5.728;2022-12-18T01:00:17;-2.50;99.90
71155;DHT22;59375;53.216;5.728;2022-12-18T01:02:43;-2.50;99.90
71155;DHT22;59375;53.216;5.728;2022-12-18T01:05:09;-2.50;99.90
71155;DHT22;59375;53.216;5.728;2022-12-18T01:07:35;-2.50;99.90
71155;DHT22;59375;53.216;5.728;2022-12-18T01:10:00;-2.60;99.90
71155;DHT22;59375;53.216;5.728;2022-12-18T01:12:26;-2.60;99.90
71155;DHT22;59375;53.216;5.728;2022-12-18T01:14:51;-2.60;99.90
71155;DHT22;59375;53.216;5.728;2022-12-18T01:17:16;-2.60;99.90
71155;DHT22;59375;53.216;5.728;2022-12-18T01:19:42;-2.60;99.90
71155;DHT22;59375;53.216;5.728;2022-12-18T01:22:07;-2.60;99.90
71155;DHT22;59375;53.216;5.728;2022-12-18T01:24:33;-2.60;99.90
71155;DHT22;59375;53.216;5.728;2022-12-18T01:26:58;-2.60;99.90
71155;DHT22;59375;53.216;5.728;2022-12-18T01:29:24;-2.70;99.90
71155;DHT22;59375;53.216;5.728;2022-12-18T01:31:49;-2.70;99.90
71155;DHT22;59375;53.216;5.728;2022-12-18T01:34:14;-2.70;99.90
71155;DHT22;59375;53.216;5.728;2022-12-18T01:36:40;-2.70;99.90
71155;DHT22;59375;53.216;5.728;2022-12-18T01:39:06;-2.70;99.90
71155;DHT22;59375;53.216;5.728;2022-12-18T01:41:33;-2.70;99.90
71155;DHT22;59375;53.216;5.728;2022-12-18T01:47:01;-2.70;99.90
71155;DHT22;59375;53.216;5.728;2022-12-18T01:49:26;-2.70;99.90
71155;DHT22;59375;53.216;5.728;2022-12-18T01:51:52;-2.70;99.90
71155;DHT22;59375;53.216;5.728;2022-12-18T01:54:17;-2.70;99.90
71155;DHT22;59375;53.216;5.728;2022-12-18T01:56:43;-2.70;99.90
71155;DHT22;59375;53.216;5.728;2022-12-18T01:59:08;-2.70;99.90
71155;DHT22;59375;53.216;5.728;2022-12-18T02:01:35;-2.70;99.90
71155;DHT22;59375;53.216;5.728;2022-12-18T02:06:46;-2.80;99.90
71155;DHT22;59375;53.216;5.728;2022-12-18T02:09:19;-2.80;99.90
71155;DHT22;59375;53.216;5.728;2022-12-18T02:24:45;-3.10;99.90
71155;DHT22;59375;53.216;5.728;2022-12-18T02:27:16;-3.20;99.90
71155;DHT22;59375;53.216;5.728;2022-12-18T02:29:44;-3.20;99.90
71155;DHT22;59375;53.216;5.728;2022-12-18T02:32:14;-3.20;99.90
71155;DHT22;59375;53.216;5.728;2022-12-18T02:34:40;-3.20;99.90
71155;DHT22;59375;53.216;5.728;2022-12-18T02:37:07;-3.20;99.90
71155;DHT22;59375;53.216;5.728;2022-12-18T02:39:35;-3.20;99.90
71155;DHT22;59375;53.216;5.728;2022-12-18T02:42:01;-3.20;99.90
71155;DHT22;59375;53.216;5.728;2022-12-18T02:44:33;-3.30;99.90
71155;DHT22;59375;53.216;5.728;2022-12-18T02:46:59;-3.30;99.90
71155;DHT22;59375;53.216;5.728;2022-12-18T02:52:01;-3.40;99.90
71155;DHT22;59375;53.216;5.728;2022-12-18T02:54:31;-3.40;99.90
71155;DHT22;59375;53.216;5.728;2022-12-18T02:56:58;-3.50;99.90
71155;DHT22;59375;53.216;5.728;2022-12-18T02:59:30;-3.50;99.90
71155;DHT22;59375;53.216;5.728;2022-12-18T03:02:15;-3.50;99.90
71155;DHT22;59375;53.216;5.728;2022-12-18T03:04:43;-3.60;99.90
71155;DHT22;59375;53.216;5.728;2022-12-18T03:07:15;-3.60;99.90
71155;DHT22;59375;53.216;5.728;2022-12-18T03:09:42;-3.70;99.90
71155;DHT22;59375;53.216;5.728;2022-12-18T03:12:16;-3.60;99.90
71155;DHT22;59375;53.216;5.728;2022-12-18T03:14:51;-3.70;99.90
71155;DHT22;59375;53.216;5.728;2022-12-18T03:17:17;-3.70;99.90
71155;DHT22;59375;53.216;5.728;2022-12-18T03:19:45;-3.70;99.90
71155;DHT22;59375;53.216;5.728;2022-12-18T03:22:11;-3.70;99.90
71155;DHT22;59375;53.216;5.728;2022-12-18T03:24:38;-3.70;99.90
71155;DHT22;59375;53.216;5.728;2022-12-18T03:27:06;-3.80;99.90
71155;DHT22;59375;53.216;5.728;2022-12-18T03:29:34;-3.80;99.90
71155;DHT22;59375;53.216;5.728;2022-12-18T03:32:11;-3.80;99.90
71155;DHT22;59375;53.216;5.728;2022-12-18T03:34:39;-3.80;99.90
71155;DHT22;59375;53.216;5.728;2022-12-18T03:37:05;-3.80;99.90
71155;DHT22;59375;53.216;5.728;2022-12-18T03:39:31;-3.80;99.90
71155;DHT22;59375;53.216;5.728;2022-12-18T03:44:43;-3.90;99.90
71155;DHT22;59375;53.216;5.728;2022-12-18T03:47:13;-3.90;99.90
71155;DHT22;59375;53.216;5.728;2022-12-18T03:49:58;-3.90;99.90
71155;DHT22;59375;53.216;5.728;2022-12-18T03:52:27;-4.00;99.90
71155;DHT22;59375;53.216;5.728;2022-12-18T03:54:53;-4.00;99.90
71155;DHT22;59375;53.216;5.728;2022-12-18T03:57:21;-4.00;99.90
71155;DHT22;59375;53.216;5.728;2022-12-18T03:59:49;-4.00;99.90
71155;DHT22;59375;53.216;5.728;2022-12-18T04:02:16;-4.00;99.90
71155;DHT22;59375;53.216;5.728;2022-12-18T04:04:42;-4.10;99.90
71155;DHT22;59375;53.216;5.728;2022-12-18T04:07:08;-4.10;99.90
71155;DHT22;59375;53.216;5.728;2022-12-18T04:09:34;-4.10;99.90
71155;DHT22;59375;53.216;5.728;2022-12-18T04:12:01;-4.10;99.90
71155;DHT22;59375;53.216;5.728;2022-12-18T04:14:26;-4.20;99.90
71155;DHT22;59375;53.216;5.728;2022-12-18T04:16:52;-4.20;99.90
71155;DHT22;59375;53.216;5.728;2022-12-18T04:19:17;-4.20;99.90
71155;DHT22;59375;53.216;5.728;2022-12-18T04:21:42;-4.20;99.90
71155;DHT22;59375;53.216;5.728;2022-12-18T04:24:08;-4.30;99.90
71155;DHT22;59375;53.216;5.728;2022-12-18T04:26:33;-4.30;99.90
71155;DHT22;59375;53.216;5.728;2022-12-18T04:28:59;-4.30;99.90
71155;DHT22;59375;53.216;5.728;2022-12-18T04:31:24;-4.30;99.90
71155;DHT22;59375;53.216;5.728;2022-12-18T04:33:50;-4.30;99.90
71155;DHT22;59375;53.216;5.728;2022-12-18T04:36:15;-4.30;99.90
71155;DHT22;59375;53.216;5.728;2022-12-18T04:38:41;-4.30;99.90
71155;DHT22;59375;53.216;5.728;2022-12-18T04:41:06;-4.30;99.90
71155;DHT22;59375;53.216;5.728;2022-12-18T04:43:32;-4.30;99.90
71155;DHT22;59375;53.216;5.728;2022-12-18T04:46:04;-4.30;99.90
71155;DHT22;59375;53.216;5.728;2022-12-18T04:48:30;-4.40;99.90
71155;DHT22;59375;53.216;5.728;2022-12-18T04:50:56;-4.40;99.90
71155;DHT22;59375;53.216;5.728;2022-12-18T04:53:21;-4.40;99.90
71155;DHT22;59375;53.216;5.728;2022-12-18T04:55:46;-4.40;99.90
71155;DHT22;59375;53.216;5.728;2022-12-18T04:58:12;-4.40;99.90
71155;DHT22;59375;53.216;5.728;2022-12-18T05:00:37;-4.50;99.90
71155;DHT22;59375;53.216;5.728;2022-12-18T05:03:03;-4.50;99.90
71155;DHT22;59375;53.216;5.728;2022-12-18T05:05:28;-4.50;99.90
71155;DHT22;59375;53.216;5.728;2022-12-18T05:07:54;-4.50;99.90
71155;DHT22;59375;53.216;5.728;2022-12-18T05:10:19;-4.50;99.90
71155;DHT22;59375;53.216;5.728;2022-12-18T05:12:45;-4.50;99.90
71155;DHT22;59375;53.216;5.728;2022-12-18T05:15:29;-4.60;99.90
71155;DHT22;59375;53.216;5.728;2022-12-18T05:17:55;-4.50;99.90
71155;DHT22;59375;53.216;5.728;2022-12-18T05:20:20;-4.50;99.90
71155;DHT22;59375;53.216;5.728;2022-12-18T05:22:46;-4.50;99.90
71155;DHT22;59375;53.216;5.728;2022-12-18T05:25:11;-4.50;99.90
71155;DHT22;59375;53.216;5.728;2022-12-18T05:27:37;-4.50;99.90
71155;DHT22;59375;53.216;5.728;2022-12-18T05:30:02;-4.60;99.90
71155;DHT22;59375;53.216;5.728;2022-12-18T05:32:28;-4.60;99.90
71155;DHT22;59375;53.216;5.728;2022-12-18T05:34:53;-4.60;99.90
71155;DHT22;59375;53.216;5.728;2022-12-18T05:37:19;-4.60;99.90
71155;DHT22;59375;53.216;5.728;2022-12-18T05:39:44;-4.60;99.90
71155;DHT22;59375;53.216;5.728;2022-12-18T05:42:09;-4.70;99.90
71155;DHT22;59375;53.216;5.728;2022-12-18T05:44:35;-4.70;99.90
71155;DHT22;59375;53.216;5.728;2022-12-18T05:47:00;-4.60;99.90
71155;DHT22;59375;53.216;5.728;2022-12-18T05:49:26;-4.60;99.90
71155;DHT22;59375;53.216;5.728;2022-12-18T05:51:51;-4.60;99.90
71155;DHT22;59375;53.216;5.728;2022-12-18T05:54:17;-4.70;99.90
71155;DHT22;59375;53.216;5.728;2022-12-18T05:56:42;-4.70;99.90
71155;DHT22;59375;53.216;5.728;2022-12-18T05:59:08;-4.70;99.90
71155;DHT22;59375;53.216;5.728;2022-12-18T06:01:33;-4.70;99.90
71155;DHT22;59375;53.216;5.728;2022-12-18T06:03:59;-4.80;99.90
71155;DHT22;59375;53.216;5.728;2022-12-18T06:06:25;-4.80;99.90
71155;DHT22;59375;53.216;5.728;2022-12-18T06:08:51;-4.80;99.90
71155;DHT22;59375;53.216;5.728;2022-12-18T06:11:19;-4.80;99.90
71155;DHT22;59375;53.216;5.728;2022-12-18T06:13:44;-4.80;99.90
71155;DHT22;59375;53.216;5.728;2022-12-18T06:16:10;-4.80;99.90
71155;DHT22;59375;53.216;5.728;2022-12-18T06:18:36;-4.90;99.90
71155;DHT22;59375;53.216;5.728;2022-12-18T06:21:01;-4.90;99.90
71155;DHT22;59375;53.216;5.728;2022-12-18T06:23:27;-4.90;99.90
71155;DHT22;59375;53.216;5.728;2022-12-18T06:25:52;-4.90;99.90
71155;DHT22;59375;53.216;5.728;2022-12-18T06:28:18;-5.00;99.90
71155;DHT22;59375;53.216;5.728;2022-12-18T06:30:44;-5.00;99.90
71155;DHT22;59375;53.216;5.728;2022-12-18T06:33:09;-5.00;99.90
71155;DHT22;59375;53.216;5.728;2022-12-18T06:35:35;-5.10;99.90
71155;DHT22;59375;53.216;5.728;2022-12-18T06:38:01;-5.10;99.90
71155;DHT22;59375;53.216;5.728;2022-12-18T06:40:26;-5.10;99.90
71155;DHT22;59375;53.216;5.728;2022-12-18T06:42:52;-5.10;99.90
71155;DHT22;59375;53.216;5.728;2022-12-18T06:45:17;-5.10;99.90
71155;DHT22;59375;53.216;5.728;2022-12-18T06:47:43;-5.10;99.90
71155;DHT22;59375;53.216;5.728;2022-12-18T06:50:08;-5.10;99.90
71155;DHT22;59375;53.216;5.728;2022-12-18T06:52:34;-5.10;99.90
71155;DHT22;59375;53.216;5.728;2022-12-18T06:54:59;-5.10;99.90
71155;DHT22;59375;53.216;5.728;2022-12-18T06:57:25;-5.10;99.90
71155;DHT22;59375;53.216;5.728;2022-12-18T06:59:50;-5.20;99.90
71155;DHT22;59375;53.216;5.728;2022-12-18T07:02:16;-5.20;99.90
71155;DHT22;59375;53.216;5.728;2022-12-18T07:04:41;-5.20;99.90
71155;DHT22;59375;53.216;5.728;2022-12-18T07:07:07;-5.20;99.90
71155;DHT22;59375;53.216;5.728;2022-12-18T07:09:32;-5.10;99.90
71155;DHT22;59375;53.216;5.728;2022-12-18T07:11:57;-5.20;99.90
71155;DHT22;59375;53.216;5.728;2022-12-18T07:14:23;-5.20;99.90
71155;DHT22;59375;53.216;5.728;2022-12-18T07:16:48;-5.20;99.90
71155;DHT22;59375;53.216;5.728;2022-12-18T07:19:14;-5.20;99.90
71155;DHT22;59375;53.216;5.728;2022-12-18T07:21:39;-5.20;99.90
71155;DHT22;59375;53.216;5.728;2022-12-18T07:24:05;-5.20;99.90
71155;DHT22;59375;53.216;5.728;2022-12-18T07:26:30;-5.20;99.90
71155;DHT22;59375;53.216;5.728;2022-12-18T07:28:56;-5.20;99.90
71155;DHT22;59375;53.216;5.728;2022-12-18T07:31:22;-5.20;99.90
71155;DHT22;59375;53.216;5.728;2022-12-18T07:33:48;-5.20;99.90
71155;DHT22;59375;53.216;5.728;2022-12-18T07:36:14;-5.20;99.90
71155;DHT22;59375;53.216;5.728;2022-12-18T07:38:40;-5.10;99.90
71155;DHT22;59375;53.216;5.728;2022-12-18T07:41:10;-5.10;99.90
71155;DHT22;59375;53.216;5.728;2022-12-18T07:43:36;-5.10;99.90
71155;DHT22;59375;53.216;5.728;2022-12-18T07:46:02;-5.10;99.90
71155;DHT22;59375;53.216;5.728;2022-12-18T07:48:28;-5.10;99.90
71155;DHT22;59375;53.216;5.728;2022-12-18T07:50:57;-5.10;99.90
71155;DHT22;59375;53.216;5.728;2022-12-18T07:53:22;-5.10;99.90
71155;DHT22;59375;53.216;5.728;2022-12-18T07:55:48;-5.10;99.90
71155;DHT22;59375;53.216;5.728;2022-12-18T07:58:13;-5.10;99.90
71155;DHT22;59375;53.216;5.728;2022-12-18T08:00:39;-5.10;99.90
71155;DHT22;59375;53.216;5.728;2022-12-18T08:03:04;-5.00;99.90
71155;DHT22;59375;53.216;5.728;2022-12-18T08:05:30;-5.00;99.90
71155;DHT22;59375;53.216;5.728;2022-12-18T08:07:55;-5.00;99.90
71155;DHT22;59375;53.216;5.728;2022-12-18T08:10:21;-4.90;99.90
71155;DHT22;59375;53.216;5.728;2022-12-18T08:12:50;-4.80;99.90
71155;DHT22;59375;53.216;5.728;2022-12-18T08:15:16;-4.80;99.90
71155;DHT22;59375;53.216;5.728;2022-12-18T08:17:41;-4.70;99.90
71155;DHT22;59375;53.216;5.728;2022-12-18T08:20:07;-4.70;99.90
71155;DHT22;59375;53.216;5.728;2022-12-18T08:22:33;-4.70;99.90
71155;DHT22;59375;53.216;5.728;2022-12-18T08:24:59;-4.70;99.90
71155;DHT22;59375;53.216;5.728;2022-12-18T08:27:24;-4.60;99.90
71155;DHT22;59375;53.216;5.728;2022-12-18T08:29:50;-4.60;99.90
71155;DHT22;59375;53.216;5.728;2022-12-18T08:32:15;-4.60;99.90
71155;DHT22;59375;53.216;5.728;2022-12-18T08:34:40;-4.60;99.90
71155;DHT22;59375;53.216;5.728;2022-12-18T08:37:06;-4.50;99.90
71155;DHT22;59375;53.216;5.728;2022-12-18T08:39:31;-4.50;99.90
71155;DHT22;59375;53.216;5.728;2022-12-18T08:41:57;-4.50;99.90
71155;DHT22;59375;53.216;5.728;2022-12-18T08:44:41;-4.50;99.90
71155;DHT22;59375;53.216;5.728;2022-12-18T08:47:06;-4.40;99.90
71155;DHT22;59375;53.216;5.728;2022-12-18T08:49:32;-4.40;99.90
71155;DHT22;59375;53.216;5.728;2022-12-18T08:51:58;-4.40;99.90
71155;DHT22;59375;53.216;5.728;2022-12-18T08:54:24;-4.30;99.90
71155;DHT22;59375;53.216;5.728;2022-12-18T08:56:49;-4.20;99.90
71155;DHT22;59375;53.216;5.728;2022-12-18T08:59:16;-4.10;99.90
71155;DHT22;59375;53.216;5.728;2022-12-18T09:01:41;-4.00;99.90
71155;DHT22;59375;53.216;5.728;2022-12-18T09:04:07;-3.90;99.90
71155;DHT22;59375;53.216;5.728;2022-12-18T09:06:33;-3.80;99.90
71155;DHT22;59375;53.216;5.728;2022-12-18T09:08:58;-3.80;99.90
71155;DHT22;59375;53.216;5.728;2022-12-18T09:11:25;-3.70;99.90
71155;DHT22;59375;53.216;5.728;2022-12-18T09:13:51;-3.60;99.90
71155;DHT22;59375;53.216;5.728;2022-12-18T09:16:17;-3.50;99.90
71155;DHT22;59375;53.216;5.728;2022-12-18T09:18:42;-3.40;99.90
71155;DHT22;59375;53.216;5.728;2022-12-18T09:21:12;-3.30;99.90
71155;DHT22;59375;53.216;5.728;2022-12-18T09:23:38;-3.20;99.90
71155;DHT22;59375;53.216;5.728;2022-12-18T09:26:03;-3.10;99.90
71155;DHT22;59375;53.216;5.728;2022-12-18T09:28:29;-3.10;99.90
71155;DHT22;59375;53.216;5.728;2022-12-18T09:30:55;-3.00;99.90
71155;DHT22;59375;53.216;5.728;2022-12-18T09:33:20;-3.00;99.90
71155;DHT22;59375;53.216;5.728;2022-12-18T09:35:45;-2.90;99.90
71155;DHT22;59375;53.216;5.728;2022-12-18T09:38:12;-2.90;99.90
71155;DHT22;59375;53.216;5.728;2022-12-18T09:40:45;-3.00;99.90
71155;DHT22;59375;53.216;5.728;2022-12-18T09:43:18;-2.90;99.90
71155;DHT22;59375;53.216;5.728;2022-12-18T09:45:50;-2.90;99.90
71155;DHT22;59375;53.216;5.728;2022-12-18T09:48:18;-2.60;99.90
71155;DHT22;59375;53.216;5.728;2022-12-18T09:50:46;-2.10;99.90
71155;DHT22;59375;53.216;5.728;2022-12-18T09:53:15;-1.80;99.90
71155;DHT22;59375;53.216;5.728;2022-12-18T09:55:44;-1.80;99.90
71155;DHT22;59375;53.216;5.728;2022-12-18T10:00:42;-2.10;99.90
71155;DHT22;59375;53.216;5.728;2022-12-18T10:03:09;-2.20;99.90
71155;DHT22;59375;53.216;5.728;2022-12-18T10:08:33;-2.30;99.90
71155;DHT22;59375;53.216;5.728;2022-12-18T10:11:11;-2.40;99.90
71155;DHT22;59375;53.216;5.728;2022-12-18T10:13:42;-2.40;99.90
71155;DHT22;59375;53.216;5.728;2022-12-18T10:16:13;-2.40;99.90
71155;DHT22;59375;53.216;5.728;2022-12-18T10:21:16;-2.40;99.90
71155;DHT22;59375;53.216;5.728;2022-12-18T10:23:46;-2.30;99.90
71155;DHT22;59375;53.216;5.728;2022-12-18T10:26:15;-2.30;99.90
71155;DHT22;59375;53.216;5.728;2022-12-18T10:28:41;-2.20;99.90
71155;DHT22;59375;53.216;5.728;2022-12-18T10:31:14;-2.20;99.90
71155;DHT22;59375;53.216;5.728;2022-12-18T10:33:42;-2.20;99.90
71155;DHT22;59375;53.216;5.728;2022-12-18T10:36:07;-2.10;99.90
71155;DHT22;59375;53.216;5.728;2022-12-18T10:38:33;-2.10;99.90
71155;DHT22;59375;53.216;5.728;2022-12-18T10:40:59;-2.00;99.90
71155;DHT22;59375;53.216;5.728;2022-12-18T10:45:58;-2.00;99.90
71155;DHT22;59375;53.216;5.728;2022-12-18T10:48:24;-1.90;99.90
71155;DHT22;59375;53.216;5.728;2022-12-18T10:50:50;-1.90;99.90
71155;DHT22;59375;53.216;5.728;2022-12-18T10:53:22;-1.90;99.90
71155;DHT22;59375;53.216;5.728;2022-12-18T10:55:47;-1.90;99.90
71155;DHT22;59375;53.216;5.728;2022-12-18T11:00:39;-1.80;99.90
71155;DHT22;59375;53.216;5.728;2022-12-18T11:03:07;-1.70;99.90
71155;DHT22;59375;53.216;5.728;2022-12-18T11:05:50;-1.70;99.90
71155;DHT22;59375;53.216;5.728;2022-12-18T11:08:26;-1.70;99.90
71155;DHT22;59375;53.216;5.728;2022-12-18T11:10:51;-1.70;99.90
71155;DHT22;59375;53.216;5.728;2022-12-18T11:15:42;-1.60;99.90
71155;DHT22;59375;53.216;5.728;2022-12-18T11:20:42;-1.60;99.90
71155;DHT22;59375;53.216;5.728;2022-12-18T11:23:14;-1.60;99.90
71155;DHT22;59375;53.216;5.728;2022-12-18T11:25:40;-1.60;99.90
71155;DHT22;59375;53.216;5.728;2022-12-18T11:31:09;-1.50;99.90
71155;DHT22;59375;53.216;5.728;2022-12-18T11:33:37;-1.50;99.90
71155;DHT22;59375;53.216;5.728;2022-12-18T11:36:04;-1.50;99.90
71155;DHT22;59375;53.216;5.728;2022-12-18T11:38:36;-1.40;99.90
71155;DHT22;59375;53.216;5.728;2022-12-18T11:41:19;-1.40;99.90
71155;DHT22;59375;53.216;5.728;2022-12-18T11:44:01;-1.40;99.90
71155;DHT22;59375;53.216;5.728;2022-12-18T11:46:35;-1.40;99.90
71155;DHT22;59375;53.216;5.728;2022-12-18T11:49:03;-1.40;99.90
71155;DHT22;59375;53.216;5.728;2022-12-18T11:51:33;-1.30;99.90
71155;DHT22;59375;53.216;5.728;2022-12-18T11:54:00;-1.30;99.90
71155;DHT22;59375;53.216;5.728;2022-12-18T11:56:43;-1.30;99.90
71155;DHT22;59375;53.216;5.728;2022-12-18T11:59:19;-1.30;99.90
71155;DHT22;59375;53.216;5.728;2022-12-18T12:04:34;-1.30;99.90
71155;DHT22;59375;53.216;5.728;2022-12-18T12:07:07;-1.40;99.90
71155;DHT22;59375;53.216;5.728;2022-12-18T12:12:18;-1.30;99.90
71155;DHT22;59375;53.216;5.728;2022-12-18T12:20:02;-1.30;99.90
71155;DHT22;59375;53.216;5.728;2022-12-18T12:22:38;-1.20;99.90
71155;DHT22;59375;53.216;5.728;2022-12-18T12:27:57;-1.20;99.90
71155;DHT22;59375;53.216;5.728;2022-12-18T12:30:35;-1.10;99.90
71155;DHT22;59375;53.216;5.728;2022-12-18T12:38:06;-1.10;99.90
71155;DHT22;59375;53.216;5.728;2022-12-18T12:40:38;-1.00;99.90
71155;DHT22;59375;53.216;5.728;2022-12-18T12:43:10;-1.00;99.90
71155;DHT22;59375;53.216;5.728;2022-12-18T12:48:05;-1.10;99.90
71155;DHT22;59375;53.216;5.728;2022-12-18T12:50:36;-1.10;99.90
71155;DHT22;59375;53.216;5.728;2022-12-18T12:53:05;-1.10;99.90
71155;DHT22;59375;53.216;5.728;2022-12-18T12:55:32;-1.10;99.90
71155;DHT22;59375;53.216;5.728;2022-12-18T12:58:02;-1.10;99.90
71155;DHT22;59375;53.216;5.728;2022-12-18T13:00:35;-1.10;99.90
71155;DHT22;59375;53.216;5.728;2022-12-18T13:03:12;-1.10;99.90
71155;DHT22;59375;53.216;5.728;2022-12-18T13:08:26;-1.00;99.90
71155;DHT22;59375;53.216;5.728;2022-12-18T13:10:53;-1.00;99.90
71155;DHT22;59375;53.216;5.728;2022-12-18T13:13:59;-1.00;99.90
71155;DHT22;59375;53.216;5.728;2022-12-18T13:16:24;-1.00;99.90
71155;DHT22;59375;53.216;5.728;2022-12-18T13:18:51;-1.00;99.90
71155;DHT22;59375;53.216;5.728;2022-12-18T13:21:35;-1.00;99.90
71155;DHT22;59375;53.216;5.728;2022-12-18T13:24:22;-1.00;99.90
71155;DHT22;59375;53.216;5.728;2022-12-18T13:26:47;-1.10;99.90
71155;DHT22;59375;53.216;5.728;2022-12-18T13:29:39;-1.00;99.90
71155;DHT22;59375;53.216;5.728;2022-12-18T13:32:00;-1.00;99.90
71155;DHT22;59375;53.216;5.728;2022-12-18T13:34:29;-1.00;99.90
71155;DHT22;59375;53.216;5.728;2022-12-18T13:36:57;-1.00;99.90
71155;DHT22;59375;53.216;5.728;2022-12-18T13:39:41;-1.00;99.90
71155;DHT22;59375;53.216;5.728;2022-12-18T13:44:39;-1.00;99.90
71155;DHT22;59375;53.216;5.728;2022-12-18T13:47:05;-1.10;99.90
71155;DHT22;59375;53.216;5.728;2022-12-18T13:49:49;-1.00;99.90
71155;DHT22;59375;53.216;5.728;2022-12-18T13:52:17;-1.00;99.90
71155;DHT22;59375;53.216;5.728;2022-12-18T13:54:43;-1.00;99.90
71155;DHT22;59375;53.216;5.728;2022-12-18T13:57:52;-1.00;99.90
71155;DHT22;59375;53.216;5.728;2022-12-18T14:00:14;-1.00;99.90
71155;DHT22;59375;53.216;5.728;2022-12-18T14:02:44;-1.10;99.90
71155;DHT22;59375;53.216;5.728;2022-12-18T14:05:21;-1.10;99.90
71155;DHT22;59375;53.216;5.728;2022-12-18T14:07:46;-1.10;99.90
71155;DHT22;59375;53.216;5.728;2022-12-18T14:10:12;-1.10;99.90
71155;DHT22;59375;53.216;5.728;2022-12-18T14:12:40;-1.10;99.90
71155;DHT22;59375;53.216;5.728;2022-12-18T14:17:50;-1.10;99.90
71155;DHT22;59375;53.216;5.728;2022-12-18T14:20:17;-1.10;99.90
71155;DHT22;59375;53.216;5.728;2022-12-18T14:22:43;-1.10;99.90
71155;DHT22;59375;53.216;5.728;2022-12-18T14:27:37;-1.10;99.90
71155;DHT22;59375;53.216;5.728;2022-12-18T14:30:16;-1.10;99.90
71155;DHT22;59375;53.216;5.728;2022-12-18T14:32:59;-1.10;99.90
71155;DHT22;59375;53.216;5.728;2022-12-18T14:35:24;-1.10;99.90
71155;DHT22;59375;53.216;5.728;2022-12-18T14:37:50;-1.10;99.90
71155;DHT22;59375;53.216;5.728;2022-12-18T14:40:15;-1.10;99.90
71155;DHT22;59375;53.216;5.728;2022-12-18T14:42:41;-1.10;99.90
71155;DHT22;59375;53.216;5.728;2022-12-18T14:47:51;-1.10;99.90
71155;DHT22;59375;53.216;5.728;2022-12-18T14:50:16;-1.10;99.90
71155;DHT22;59375;53.216;5.728;2022-12-18T14:52:42;-1.10;99.90
71155;DHT22;59375;53.216;5.728;2022-12-18T14:55:14;-1.10;99.90
71155;DHT22;59375;53.216;5.728;2022-12-18T14:57:40;-1.10;99.90
71155;DHT22;59375;53.216;5.728;2022-12-18T15:00:18;-1.10;99.90
71155;DHT22;59375;53.216;5.728;2022-12-18T15:02:45;-1.10;99.90
71155;DHT22;59375;53.216;5.728;2022-12-18T15:05:19;-1.20;99.90
71155;DHT22;59375;53.216;5.728;2022-12-18T15:07:51;-1.20;99.90
71155;DHT22;59375;53.216;5.728;2022-12-18T15:10:21;-1.20;99.90
71155;DHT22;59375;53.216;5.728;2022-12-18T15:15:43;-1.20;99.90
71155;DHT22;59375;53.216;5.728;2022-12-18T15:20:54;-1.10;99.90
71155;DHT22;59375;53.216;5.728;2022-12-18T15:23:26;-1.10;99.90
71155;DHT22;59375;53.216;5.728;2022-12-18T15:25:56;-1.10;99.90
71155;DHT22;59375;53.216;5.728;2022-12-18T15:28:23;-1.10;99.90
71155;DHT22;59375;53.216;5.728;2022-12-18T15:31:06;-1.10;99.90
71155;DHT22;59375;53.216;5.728;2022-12-18T15:34:05;-1.10;99.90
71155;DHT22;59375;53.216;5.728;2022-12-18T15:36:30;-1.10;99.90
71155;DHT22;59375;53.216;5.728;2022-12-18T15:38:56;-1.10;99.90
71155;DHT22;59375;53.216;5.728;2022-12-18T15:41:22;-1.10;99.90
71155;DHT22;59375;53.216;5.728;2022-12-18T15:43:49;-1.10;99.90
71155;DHT22;59375;53.216;5.728;2022-12-18T15:46:16;-1.10;99.90
71155;DHT22;59375;53.216;5.728;2022-12-18T15:48:42;-1.10;99.90
71155;DHT22;59375;53.216;5.728;2022-12-18T15:51:11;-1.10;99.90
71155;DHT22;59375;53.216;5.728;2022-12-18T15:53:38;-1.10;99.90
71155;DHT22;59375;53.216;5.728;2022-12-18T15:56:04;-1.10;99.90
71155;DHT22;59375;53.216;5.728;2022-12-18T15:58:48;-1.10;99.90
71155;DHT22;59375;53.216;5.728;2022-12-18T16:01:14;-1.10;99.90
71155;DHT22;59375;53.216;5.728;2022-12-18T16:03:40;-1.00;99.90
71155;DHT22;59375;53.216;5.728;2022-12-18T16:06:05;-1.00;99.90
71155;DHT22;59375;53.216;5.728;2022-12-18T16:08:31;-1.00;99.90
71155;DHT22;59375;53.216;5.728;2022-12-18T16:10:56;-1.00;99.90
71155;DHT22;59375;53.216;5.728;2022-12-18T16:13:22;-1.00;99.90
71155;DHT22;59375;53.216;5.728;2022-12-18T16:15:48;-1.00;99.90
71155;DHT22;59375;53.216;5.728;2022-12-18T16:18:14;-1.00;99.90
71155;DHT22;59375;53.216;5.728;2022-12-18T16:20:39;-1.00;99.90
71155;DHT22;59375;53.216;5.728;2022-12-18T16:23:05;-1.00;99.90
71155;DHT22;59375;53.216;5.728;2022-12-18T16:25:31;-1.00;99.90
71155;DHT22;59375;53.216;5.728;2022-12-18T16:27:56;-1.00;99.90
71155;DHT22;59375;53.216;5.728;2022-12-18T16:30:23;-1.00;99.90
71155;DHT22;59375;53.216;5.728;2022-12-18T16:32:49;-0.90;99.90
71155;DHT22;59375;53.216;5.728;2022-12-18T16:35:15;-0.90;99.90
71155;DHT22;59375;53.216;5.728;2022-12-18T16:37:40;-0.90;99.90
71155;DHT22;59375;53.216;5.728;2022-12-18T16:40:07;-0.90;99.90
71155;DHT22;59375;53.216;5.728;2022-12-18T16:42:34;-0.90;99.90
71155;DHT22;59375;53.216;5.728;2022-12-18T16:45:00;-0.90;99.90
71155;DHT22;59375;53.216;5.728;2022-12-18T16:47:25;-0.90;99.90
71155;DHT22;59375;53.216;5.728;2022-12-18T16:49:51;-0.90;99.90
71155;DHT22;59375;53.216;5.728;2022-12-18T16:52:17;-0.80;99.90
71155;DHT22;59375;53.216;5.728;2022-12-18T16:54:43;-0.80;99.90
71155;DHT22;59375;53.216;5.728;2022-12-18T16:57:09;-0.80;99.90
71155;DHT22;59375;53.216;5.728;2022-12-18T16:59:37;-0.80;99.90